メインページ
METAR-TAF:

METAR-TAF

空港 :

グラン・カナリア空港

グラン・カナリア島, スペイン

緯度: 27-56N, 経度: 015-23W, 海抜: 23m

現時点の気象観測

当レポートは30分前の10:00(UTC)に作成
北東の風 15kt
気温 24°C
湿度 57%
気圧 1018 hPa
視程10km以上
高度2500ftの雲はほとんどない

METAR: GCLP 191000Z 04015KT 9999 FEW025 24/15 Q1018 NOSIG

時間: 11:30 (10:30 UTC)

予報

当レポートは2時間30分前の08:00(UTC)に作成
予報は19日の 09時(UTC)から 20日の 09時(UTC)まで有効
北東の風 15kt
視程10km以上
高度2500ftの千切れ雲あり
確率 40% :
19日の 09時(UTC)から 19日の 10時(UTC)まで一時的に
の風 5kt
19日の 19時(UTC)から 19日の 21時(UTC)まで徐々に
北/北西の風 10kt

TAF: GCLP 190800Z 1909/2009 04015KT 9999 BKN025 TX25/1915Z TN18/2005Z PROB40 TEMPO 1909/1910 35005KT BECMG 1919/1921 34010KT

4,000以上の空港の気象観測と天気予報(METAR報とTAF報)

利用可能な観測所は地図上に黄色い丸と赤い丸で示す。

丸の上にカーソルを重ねると観測所名を参照できる。

次にクリックすると気象観測と天気予報を参照できる。

マップの切り替え:黒色「×」印の緑ボタンをクリックして拡大、「-」印の緑ボタンをクリックして縮小、緑色の三角印をクリックして隣りの地図に切り替え


METAR-TAF: